Aviation Digital Data Service (ADDS)

Output produced by METARs form (0958 UTC 19 January 2019)
found at http://www.aviationweather.gov/metar/data/
 
EIME 190900Z 25002KT 9999 FEW008 OVC019 05/05 Q1004
TAF EIME 190800Z 1909/1918 27005KT 9999 SCT007 BKN020 
     TEMPO 1909/1912 BKN007 
     PROB40 
     TEMPO 1909/1911 3000 BR BKN004 
     PROB30 
     TEMPO 1909/1910 0800 FG BKN002 
     PROB30 
     TEMPO 1911/1918 3000 BR BKN004
       
EIKN 190930Z 14002KT 0200 R26/0350 FG BKN002 BKN008 04/04 Q1004 NOSIG
TAF EIKN 190500Z 1906/2006 VRB03KT 0200 FG BKN002 
     PROB40 
     TEMPO 1909/1912 0800 BKN003 
     BECMG 1912/1914 2000 BR SCT002 BKN003 
     TEMPO 1914/1918 0300 FG BKN002 
     PROB30 
     TEMPO 1914/1918 9999 NSW SCT003 BKN015 
     BECMG 1918/1921 0200 FG BKN002 
     BECMG 1923/2002 32008KT 7000 -RA SCT003 BKN012 
     TEMPO 2002/2004 3000 BR BKN003 
     BECMG 2004/2006 34017G28KT 9999 FEW012 SCT025
       
EICK 190930Z 30008KT 9999 FEW002 05/04 Q1005 NOSIG
TAF EICK 190500Z 1906/2006 27006KT 9999 FEW015 SCT030 
     PROB30 
     TEMPO 1906/1909 1500 BR BKN002 
     BECMG 1911/1914 30008KT 
     PROB30 
     TEMPO 1921/1924 3000 BR BKN003 
     BECMG 2000/2003 33008KT 
     BECMG 2004/2006 34013KT -RA SCT008 BKN015 
     TEMPO 2004/2006 BKN008
       
EIDL 190930Z VRB02KT 9999 OVC028 04/04 Q1005
TAF EIDL 190800Z 1909/1918 16006KT 9999 FEW014 SCT025
       
EIDW 190930Z 28005KT 9999 FEW018 BKN025 05/05 Q1005 NOSIG
TAF EIDW 190500Z 1906/2006 VRB03KT 9999 SCT007 BKN025 
     BECMG 1906/1908 26005KT 
     TEMPO 1906/1912 -DZ BKN007 
     PROB40 
     TEMPO 1906/1912 3000 BR BKN004 
     PROB30 
     TEMPO 1907/1910 0800 FG BKN002 
     PROB30 
     TEMPO 1912/2002 3000 BR BKN004 
     BECMG 1913/1916 29006KT 
     PROB30 
     TEMPO 2002/2006 0800 FG BKN002
       
EIKY 190930Z 24003KT 6000 -RA FEW007 BKN016 BKN026 06/06 Q1005
TAF EIKY 190800Z 1909/1918 VRB03KT 9999 FEW004 BKN025 
     BECMG 1909/1912 22005KT 
     PROB30 
     TEMPO 1909/1911 3000 -SHRA BR BKN004 
     BECMG 1913/1915 30005KT
       
EINN 190930Z 12003KT 3000 -SHRA BR BKN003 05/05 Q1005 NOSIG
TAF EINN 190500Z 1906/2006 22005KT 9999 FEW008 SCT025 
     TEMPO 1906/1910 VRB03KT -SHRA 
     PROB30 
     TEMPO 1906/1910 1500 BR BKN002 
     BECMG 1914/1917 34005KT 
     BECMG 1919/1922 29005KT 
     PROB30 
     TEMPO 1919/1924 2000 BR BKN002 
     BECMG 2000/2003 32009KT 
     BECMG 2003/2005 33016G27KT -RA SCT012 BKN015
       
EISG 190930Z VRB02KT 9999 FEW007 OVC014 05/05 Q1005
TAF EISG 190800Z 1909/1918 15005KT 9999 FEW003 BKN025 
     TEMPO 1909/1911 VRB03KT 3000 BR BKN003 
     PROB30 
     TEMPO 1911/1915 3000 BR BKN003
       
EIWF 190930Z 06004KT 0800 FG NSC 00/00 Q1005
TAF EIWF 190800Z 1909/1918 VRB03KT 9999 FEW018 SCT028 
     PROB40 
     TEMPO 1909/1911 0200 FG BKN002 
     BECMG 1916/1918 36005KT